tititudorancea.com
Station Historical Data
Daily Summary for February 2, 2018 Units:  Metric    English   Both
« Previous Day
Next Day »
Daily Weekly Monthly Yearly Custom
  High: Low: Average:
Temperature: -17.8 °C 10.7 °C 17.6 °C
Dew Point: -17.8 °C 6.8 °C 9.3 °C
Humidity: Humidity % 33 % 62 %
Wind Speed: 0 km/h 5 km/h 12.7 km/h
Wind Gust: 0 km/h - -
Wind:- - South
Pressure: 0 hPa 1014.8 hPa -
Precipitation: 0 mm    
Historical Graphs
 
 
Ararat weather Find more about Weather in Ararat, AU


 



 


Tabular Data for February 2, 2018
Time Temperature Dew Point Pressure Wind Wind Speed Wind Gust Humidity Rainfall Rate (Hourly)
-17.8 °C -17.8 °C 0 hPa Calm     Humidity % 0 mm
00:02 11.9 °C 8.2 °C 1016.1 hPa South 11.6 km/h 20.4 km/h 78 % 0 mm
00:07 11.9 °C 8.3 °C 1016.1 hPa South 12.7 km/h 18.5 km/h 79 % 0 mm
00:12 11.8 °C 8.3 °C 1016.1 hPa South 10.1 km/h 16.7 km/h 79 % 0 mm
00:17 11.7 °C 8.2 °C 1016.1 hPa South 10.8 km/h 16.7 km/h 79 % 0 mm
00:22 11.6 °C 8.1 °C 1016.5 hPa South 9.8 km/h 16.7 km/h 79 % 0 mm
00:27 11.4 °C 8.1 °C 1016.5 hPa South 8.5 km/h 18.5 km/h 80 % 0 mm
00:32 11.4 °C 8.1 °C 1016.5 hPa South 5 km/h 11.1 km/h 80 % 0 mm
00:37 11.3 °C 8.1 °C 1016.1 hPa South 7.2 km/h 11.3 km/h 81 % 0 mm
00:42 11.2 °C 8.1 °C 1016.1 hPa South 5.8 km/h 9.7 km/h 81 % 0 mm
00:47 11.1 °C 7.9 °C 1016.1 hPa South 6.3 km/h 9.3 km/h 81 % 0 mm
00:52 11.1 °C 8.1 °C 1016.1 hPa North 7.4 km/h 13 km/h 82 % 0 mm
00:57 11 °C 8.1 °C 1016.1 hPa North 9.3 km/h 16.7 km/h 82 % 0 mm
01:02 11.1 °C 8.3 °C 1016.1 hPa South 8.4 km/h 11.1 km/h 83 % 0 mm
01:07 11 °C 8.2 °C 1016.1 hPa South 11.1 km/h 16.7 km/h 83 % 0 mm
01:12 11 °C 8.1 °C 1016.1 hPa North 11.6 km/h 18.5 km/h 82 % 0 mm
01:17 10.9 °C 7.9 °C 1016.1 hPa South 8.5 km/h 14.8 km/h 82 % 0 mm
01:22 10.9 °C 7.9 °C 1016.1 hPa South 11.1 km/h 16.7 km/h 82 % 0 mm
01:27 10.8 °C 8.1 °C 1016.1 hPa South 12.1 km/h 16.7 km/h 83 % 0 mm
01:32 10.8 °C 8.1 °C 1016.1 hPa South 10.6 km/h 18.5 km/h 83 % 0 mm
01:37 10.8 °C 8 °C 1016.1 hPa North 13.5 km/h 18.5 km/h 83 % 0 mm
01:42 10.7 °C 7.9 °C 1016.1 hPa South 10.8 km/h 14.8 km/h 83 % 0 mm
01:47 10.7 °C 7.9 °C 1016.1 hPa South 6.8 km/h 13 km/h 83 % 0 mm
01:52 10.7 °C 7.9 °C 1016.1 hPa North 9.7 km/h 14.8 km/h 83 % 0 mm
01:57 10.7 °C 7.9 °C 1016.1 hPa South 10.9 km/h 18.5 km/h 83 % 0 mm
02:02 10.8 °C 8 °C 1016.1 hPa North 6.1 km/h 11.1 km/h 83 % 0 mm
02:07 10.8 °C 8.2 °C 1015.8 hPa South 11.1 km/h 16.7 km/h 84 % 0 mm
02:12 10.7 °C 8.1 °C 1015.8 hPa South 14.3 km/h 24.1 km/h 84 % 0 mm
02:17 10.7 °C 8.1 °C 1015.8 hPa South 12.4 km/h 18.5 km/h 84 % 0 mm
02:22 10.7 °C 8.1 °C 1015.8 hPa North 10.9 km/h 20.4 km/h 84 % 0 mm
02:27 10.8 °C 8.3 °C 1015.8 hPa South 13.4 km/h 18.5 km/h 85 % 0 mm
02:32 10.8 °C 8.4 °C 1015.8 hPa North 15.1 km/h 24.1 km/h 85 % 0 mm
02:37 10.9 °C 8.4 °C 1015.8 hPa South 10.8 km/h 17.7 km/h 85 % 0 mm
02:42 10.9 °C 8.4 °C 1015.8 hPa North 8.7 km/h 13 km/h 85 % 0 mm
02:47 10.9 °C 8.4 °C 1015.8 hPa SSW 8.9 km/h 18.5 km/h 85 % 0 mm
02:52 10.9 °C 8.5 °C 1015.8 hPa South 8.4 km/h 11.1 km/h 85 % 0 mm
02:57 11.1 °C 8.6 °C 1015.8 hPa South 10.8 km/h 16.7 km/h 85 % 0 mm
03:02 11.2 °C 8.7 °C 1015.8 hPa North 6.3 km/h 9.3 km/h 85 % 0 mm
03:07 11.2 °C 8.8 °C 1015.8 hPa South 10.3 km/h 18.5 km/h 85 % 0 mm
03:12 11.3 °C 8.8 °C 1015.5 hPa South 9 km/h 16.7 km/h 85 % 0 mm
03:17 11.3 °C 8.8 °C 1015.8 hPa South 10.6 km/h 16.1 km/h 85 % 0 mm
03:22 11.3 °C 8.9 °C 1015.5 hPa North 10.9 km/h 16.7 km/h 85 % 0 mm
03:27 11.4 °C 9 °C 1015.8 hPa North 10.1 km/h 16.7 km/h 85 % 0 mm
03:32 11.5 °C 9.1 °C 1015.8 hPa SSW 11.9 km/h 20.4 km/h 85 % 0 mm
03:37 11.6 °C 9.2 °C 1015.8 hPa South 5.1 km/h 13 km/h 85 % 0 mm
03:42 11.6 °C 9 °C 1015.8 hPa South 8.5 km/h 16.7 km/h 84 % 0 mm
03:47 11.7 °C 9.1 °C 1015.8 hPa North 5.1 km/h 8 km/h 84 % 0 mm
03:52 11.7 °C 9.1 °C 1015.8 hPa North 10.9 km/h 14.8 km/h 84 % 0 mm
03:57 11.7 °C 9.1 °C 1015.8 hPa North 10.1 km/h 18.5 km/h 84 % 0 mm
04:02 11.6 °C 9 °C 1015.8 hPa South 11.6 km/h 18.5 km/h 84 % 0 mm
04:07 11.6 °C 9.1 °C 1015.8 hPa North 6.8 km/h 9.3 km/h 85 % 0 mm
04:12 11.5 °C 9.1 °C 1015.8 hPa North 7.9 km/h 11.1 km/h 85 % 0 mm
04:17 11.5 °C 9.1 °C 1015.8 hPa South 8.5 km/h 13 km/h 85 % 0 mm
04:22 11.6 °C 9.3 °C 1015.8 hPa North 8.4 km/h 14.8 km/h 86 % 0 mm
04:27 11.6 °C 9.3 °C 1015.8 hPa North 10.8 km/h 18.5 km/h 86 % 0 mm
04:32 11.7 °C 9.4 °C 1015.8 hPa South 7.6 km/h 13 km/h 86 % 0 mm
04:37 11.7 °C 9.4 °C 1015.8 hPa North 7.1 km/h 13 km/h 86 % 0 mm
04:42 11.7 °C 9.4 °C 1015.8 hPa South 9.8 km/h 18.5 km/h 86 % 0 mm
04:47 11.8 °C 9.5 °C 1015.8 hPa South 7.4 km/h 14.5 km/h 86 % 0 mm
04:52 11.9 °C 9.4 °C 1015.8 hPa North 5.3 km/h 11.1 km/h 85 % 0 mm
04:57 11.9 °C 9.6 °C 1015.8 hPa South 9.2 km/h 14.8 km/h 86 % 0 mm
05:02 11.9 °C 9.5 °C 1015.8 hPa North 9.7 km/h 16.1 km/h 85 % 0 mm
05:07 12.1 °C 9.8 °C 1015.8 hPa South 11.6 km/h 20.4 km/h 86 % 0 mm
05:12 12.2 °C 9.8 °C 1015.8 hPa South 10.9 km/h 20.4 km/h 85 % 0 mm
05:17 12.4 °C 9.9 °C 1015.8 hPa North 11.7 km/h 18.5 km/h 85 % 0 mm
05:22 12.4 °C 10 °C 1015.8 hPa SSE 6 km/h 13 km/h 85 % 0 mm
05:27 12.4 °C 9.8 °C 1015.8 hPa SSE 7.9 km/h 18.5 km/h 84 % 0 mm
05:32 12.5 °C 9.9 °C 1016.1 hPa North 15.9 km/h 20.4 km/h 84 % 0 mm
05:37 12.4 °C 9.8 °C 1016.1 hPa South 13.4 km/h 18.5 km/h 84 % 0 mm
05:42 12.4 °C 9.8 °C 1016.1 hPa North 11.6 km/h 18.5 km/h 84 % 0 mm
05:47 12.4 °C 9.9 °C 1016.1 hPa South 12.7 km/h 16.7 km/h 85 % 0 mm
05:52 12.4 °C 9.9 °C 1016.1 hPa South 12.4 km/h 20.4 km/h 85 % 0 mm
05:57 12.4 °C 9.9 °C 1016.1 hPa South 12.1 km/h 18.5 km/h 85 % 0 mm
06:02 12.4 °C 9.9 °C 1016.1 hPa SSE 9.5 km/h 14.8 km/h 85 % 0 mm
06:07 12.4 °C 9.9 °C 1016.1 hPa South 6.1 km/h 9.3 km/h 85 % 0 mm
06:12 12.4 °C 10.1 °C 1016.5 hPa South 11.4 km/h 18.5 km/h 86 % 0 mm
06:17 12.4 °C 10.2 °C 1016.5 hPa North 15.1 km/h 18.5 km/h 86 % 0 mm
06:22 12.4 °C 10 °C 1016.5 hPa South 14 km/h 18.5 km/h 85 % 0 mm
06:27 12.5 °C 10.1 °C 1016.8 hPa North 9.7 km/h 16.7 km/h 85 % 0 mm
06:32 12.5 °C 10.1 °C 1016.8 hPa South 10.5 km/h 19.3 km/h 85 % 0 mm
06:37 12.4 °C 10 °C 1016.8 hPa South 10.5 km/h 13 km/h 85 % 0 mm
06:42 12.4 °C 9.9 °C 1016.8 hPa South 11.1 km/h 14.5 km/h 85 % 0 mm
06:47 12.4 °C 9.9 °C 1016.8 hPa SSE 10.3 km/h 14.8 km/h 85 % 0 mm
06:52 12.4 °C 9.9 °C 1016.8 hPa South 11.9 km/h 16.7 km/h 85 % 0 mm
06:57 12.4 °C 10 °C 1016.8 hPa SSE 8.9 km/h 11.1 km/h 85 % 0 mm
07:02 12.5 °C 10.1 °C 1017.2 hPa South 8.4 km/h 17.7 km/h 85 % 0 mm
07:07 12.6 °C 10.1 °C 1017.2 hPa SSW 9.2 km/h 9.7 km/h 85 % 0 mm
07:12 12.6 °C 10.2 °C 1017.2 hPa South 10.1 km/h 20.4 km/h 85 % 0 mm
07:17 12.7 °C 10.2 °C 1017.2 hPa South 15.3 km/h 25.9 km/h 85 % 0 mm
07:22 12.7 °C 10.2 °C 1017.2 hPa North 12.1 km/h 14.8 km/h 85 % 0 mm
07:27 12.7 °C 10.3 °C 1017.2 hPa South 15.4 km/h 18.5 km/h 85 % 0 mm
07:32 12.7 °C 10.3 °C 1017.2 hPa South 12.9 km/h 20.4 km/h 85 % 0 mm
07:37 12.8 °C 10.3 °C 1017.5 hPa South 13.4 km/h 18.5 km/h 85 % 0 mm
07:42 12.9 °C 10.4 °C 1017.5 hPa South 14 km/h 20.9 km/h 85 % 0 mm
07:47 12.9 °C 10.4 °C 1017.5 hPa South 15.6 km/h 22.5 km/h 85 % 0 mm
07:52 12.9 °C 10.5 °C 1017.5 hPa South 12.9 km/h 18.5 km/h 85 % 0 mm
07:57 13 °C 10.6 °C 1017.5 hPa North 7.6 km/h 16.7 km/h 85 % 0 mm
08:02 13.1 °C 10.7 °C 1017.5 hPa South 11.7 km/h 18.5 km/h 85 % 0 mm
08:07 13.2 °C 10.6 °C 1017.5 hPa SSE 11.6 km/h 18.5 km/h 84 % 0 mm
08:13 13.3 °C 10.6 °C 1017.5 hPa SE 13 km/h 31.5 km/h 84 % 0 mm
08:18 13.4 °C 10.7 °C 1017.8 hPa SSE 8.2 km/h 16.7 km/h 84 % 0 mm
08:23 13.6 °C 10.8 °C 1017.8 hPa SSE 14.8 km/h 20.4 km/h 83 % 0 mm
08:28 13.8 °C 10.8 °C 1017.8 hPa SSE 14.6 km/h 20.4 km/h 82 % 0 mm
08:33 14.1 °C 10.8 °C 1017.8 hPa SSE 13.8 km/h 18.5 km/h 81 % 0 mm
08:38 14.2 °C 10.9 °C 1017.8 hPa SE 13.7 km/h 24.1 km/h 81 % 0 mm
08:43 14.2 °C 10.8 °C 1017.8 hPa SE 31.5 km/h 31.5 km/h 80 % 0 mm
08:48 14.2 °C 10.6 °C 1017.8 hPa SE 17.5 km/h 24.1 km/h 79 % 0 mm
08:53 14.3 °C 10.9 °C 1017.8 hPa North 10.9 km/h 18.5 km/h 80 % 0 mm
08:58 14.3 °C 10.7 °C 1017.8 hPa SE 13.4 km/h 24.1 km/h 79 % 0 mm
09:03 14.5 °C 10.7 °C 1017.8 hPa SE 19.2 km/h 25.9 km/h 78 % 0 mm
09:08 14.9 °C 11.2 °C 1017.8 hPa SSE 15.8 km/h 24.1 km/h 78 % 0 mm
09:13 15.3 °C 10.9 °C 1018.2 hPa SE 18 km/h 27.8 km/h 75 % 0 mm
09:18 15.6 °C 10.9 °C 1017.8 hPa South 16.4 km/h 27.8 km/h 74 % 0 mm
09:23 15.6 °C 11 °C 1018.2 hPa SSE 11.4 km/h 24.1 km/h 74 % 0 mm
09:28 16.1 °C 11.2 °C 1017.8 hPa SE 17.5 km/h 24.1 km/h 73 % 0 mm
09:33 16.3 °C 10.8 °C 1017.8 hPa SE 26.7 km/h 37 km/h 70 % 0 mm
09:38 16.6 °C 11.3 °C 1018.2 hPa SSE 11.3 km/h 20.4 km/h 71 % 0 mm
09:43 16.8 °C 10.8 °C 1018.2 hPa SE 18.5 km/h 24.1 km/h 68 % 0 mm
09:48 16.3 °C 10.6 °C 1018.2 hPa SE 13.5 km/h 18.5 km/h 69 % 0 mm
09:53 16.7 °C 10.9 °C 1018.2 hPa SE 14 km/h 27.8 km/h 69 % 0 mm
09:58 17.3 °C 11.1 °C 1018.2 hPa SE 21.7 km/h 29.6 km/h 67 % 0 mm
10:03 17.3 °C 10.9 °C 1017.8 hPa SE 14.8 km/h 29.6 km/h 66 % 0 mm
10:08 17.3 °C 10.6 °C 1018.2 hPa ESE 16.4 km/h 24.1 km/h 65 % 0 mm
10:13 17.1 °C 10.7 °C 1018.2 hPa SSE 11.7 km/h 27.8 km/h 66 % 0 mm
10:18 17.2 °C 11 °C 1018.2 hPa SE 14.5 km/h 18.5 km/h 67 % 0 mm
10:23 17.5 °C 10.8 °C 1018.2 hPa SE 18.7 km/h 29.6 km/h 65 % 0 mm
10:28 17.5 °C 10.8 °C 1018.2 hPa SSE 14.5 km/h 22.2 km/h 65 % 0 mm
10:33 17.9 °C 11.2 °C 1018.2 hPa SE 16.4 km/h 29.6 km/h 65 % 0 mm
10:38 18.3 °C 10.9 °C 1017.8 hPa SE 14.5 km/h 29.6 km/h 62 % 0 mm
10:43 18.7 °C 11.1 °C 1018.2 hPa SE 17.7 km/h 22.5 km/h 61 % 0 mm
10:48 18.3 °C 10.6 °C 1018.2 hPa SSE 17.7 km/h 24.1 km/h 61 % 0 mm
10:53 18.1 °C 10.9 °C 1017.8 hPa SSE 11.6 km/h 20.4 km/h 63 % 0 mm
10:58 18.5 °C 11.1 °C 1017.8 hPa South 14 km/h 27.8 km/h 62 % 0 mm
11:03 18.6 °C 10.7 °C 1017.8 hPa SSE 17.5 km/h 27.8 km/h 60 % 0 mm
11:08 18.7 °C 10.5 °C 1017.8 hPa South 13.2 km/h 29.6 km/h 59 % 0 mm
11:13 19 °C 11.3 °C 1017.8 hPa SE 16.4 km/h 24.1 km/h 61 % 0 mm
11:18 19.3 °C 10.8 °C 1017.8 hPa SSE 14.3 km/h 31.5 km/h 58 % 0 mm
11:23 19.1 °C 10.8 °C 1017.8 hPa SE 14.3 km/h 27.8 km/h 59 % 0 mm
11:28 19.4 °C 10.9 °C 1017.8 hPa South 15.9 km/h 22.2 km/h 58 % 0 mm
11:33 19.6 °C 10.8 °C 1017.8 hPa SE 19.8 km/h 31.5 km/h 57 % 0 mm
11:38 19.6 °C 10.8 °C 1017.5 hPa SSE 16.4 km/h 24.1 km/h 57 % 0 mm
11:43 19.8 °C 10.8 °C 1017.8 hPa SE 19.6 km/h 31.5 km/h 56 % 0 mm
11:48 20.5 °C 10.9 °C 1017.8 hPa SE 16.4 km/h 24.1 km/h 54 % 0 mm
11:53 20.4 °C 10.8 °C 1017.8 hPa SE 15.3 km/h 20.4 km/h 54 % 0 mm
11:58 20.4 °C 10.5 °C 1017.5 hPa SE 21.1 km/h 29.6 km/h 53 % 0 mm
12:03 20.3 °C 10.7 °C 1017.5 hPa SSE 15.9 km/h 19.3 km/h 54 % 0 mm
12:08 20.4 °C 10.8 °C 1017.5 hPa SE 19 km/h 27.8 km/h 54 % 0 mm
12:13 20.7 °C 10.8 °C 1017.5 hPa SE 14 km/h 27.8 km/h 53 % 0 mm
12:18 21.2 °C 10.7 °C 1017.2 hPa SSE 16.7 km/h 25.9 km/h 51 % 0 mm
12:23 21.1 °C 10.3 °C 1017.2 hPa ESE 20.6 km/h 27.8 km/h 50 % 0 mm
12:28 21.3 °C 10.1 °C 1017.2 hPa SE 14.3 km/h 29.6 km/h 49 % 0 mm
12:33 21.6 °C 10.4 °C 1017.2 hPa SSE 13.2 km/h 20.4 km/h 49 % 0 mm
12:38 21.8 °C 10.3 °C 1017.2 hPa SE 10.3 km/h 20.4 km/h 48 % 0 mm
12:43 21.8 °C 10.3 °C 1017.2 hPa SE 17.5 km/h 27.8 km/h 48 % 0 mm
12:48 21.9 °C 10.4 °C 1016.8 hPa SE 17.9 km/h 22.2 km/h 48 % 0 mm
12:53 21.8 °C 10.3 °C 1016.8 hPa SE 22.9 km/h 24.1 km/h 48 % 0 mm
12:58 21.8 °C 10.3 °C 1016.8 hPa SE 12.7 km/h 20.4 km/h 48 % 0 mm
13:03 22.3 °C 10.4 °C 1016.8 hPa SSE 12.6 km/h 20.4 km/h 47 % 0 mm
13:08 22.4 °C 10.2 °C 1016.8 hPa SE 20.1 km/h 27.8 km/h 46 % 0 mm
13:13 22.6 °C 10.1 °C 1016.5 hPa SSE 12.6 km/h 20.4 km/h 45 % 0 mm
13:18 22.7 °C 9.8 °C 1016.5 hPa SSE 16.1 km/h 27.8 km/h 44 % 0 mm
13:23 22.9 °C 10.4 °C 1016.5 hPa SE 14.8 km/h 18.5 km/h 45 % 0 mm
13:28 23.3 °C 10.3 °C 1016.5 hPa ESE 16.9 km/h 24.1 km/h 44 % 0 mm
13:33 23.2 °C 9.9 °C 1016.5 hPa SE 12.7 km/h 18.5 km/h 43 % 0 mm
13:38 23.2 °C 10.3 °C 1016.5 hPa SSE 14.3 km/h 25.9 km/h 44 % 0 mm
13:43 23.3 °C 9.7 °C 1016.5 hPa SSE 14.2 km/h 24.1 km/h 42 % 0 mm
13:48 23.7 °C 10.4 °C 1016.1 hPa SSE 13.7 km/h 18.5 km/h 43 % 0 mm
13:53 24 °C 9.6 °C 1016.1 hPa SSE 14.8 km/h 22.2 km/h 40 % 0 mm
13:58 24.1 °C 9.7 °C 1016.1 hPa ESE 10.3 km/h 18.5 km/h 40 % 0 mm
14:03 24.3 °C 9.8 °C 1016.1 hPa SE 22.7 km/h 25.9 km/h 40 % 0 mm
14:08 24 °C 9.6 °C 1016.1 hPa SE 14 km/h 20.4 km/h 40 % 0 mm
14:13 24.1 °C 10 °C 1016.1 hPa South 16.4 km/h 29.6 km/h 41 % 0 mm
14:18 24.6 °C 9.7 °C 1015.8 hPa SE 7.9 km/h 18.5 km/h 39 % 0 mm
14:23 24.6 °C 9.3 °C 1015.8 hPa South 13.2 km/h 27.8 km/h 38 % 0 mm
14:28 24.3 °C 9.1 °C 1015.8 hPa South 15 km/h 16.7 km/h 38 % 0 mm
14:33 24.3 °C 9.4 °C 1015.8 hPa SSE 13.7 km/h 16.7 km/h 39 % 0 mm
14:38 24.3 °C 9.5 °C 1015.8 hPa ESE 17.7 km/h 31.5 km/h 39 % 0 mm
14:43 24.5 °C 9.2 °C 1015.8 hPa SE 18.5 km/h 22.2 km/h 38 % 0 mm
14:48 24.7 °C 9.1 °C 1015.8 hPa SSE 18.7 km/h 25.9 km/h 37 % 0 mm
14:53 25.1 °C 9.7 °C 1015.8 hPa SE 15.1 km/h 20.4 km/h 38 % 0 mm
14:58 25.2 °C 9.4 °C 1015.8 hPa SSE 7.7 km/h 16.7 km/h 37 % 0 mm
15:03 24.9 °C 8.4 °C 1015.8 hPa South 17.4 km/h 29 km/h 35 % 0 mm
15:08 24.6 °C 8.6 °C 1015.5 hPa SE 17.2 km/h 29.6 km/h 36 % 0 mm
15:13 24.9 °C 9.2 °C 1015.5 hPa SSE 15.1 km/h 18.5 km/h 37 % 0 mm
15:18 25.3 °C 9.1 °C 1015.5 hPa SSE 16.1 km/h 25.9 km/h 36 % 0 mm
15:23 25.4 °C 9.2 °C 1015.5 hPa ESE 13.2 km/h 24.1 km/h 36 % 0 mm
15:28 25.4 °C 9.2 °C 1015.5 hPa SSE 14.3 km/h 20.9 km/h 36 % 0 mm
15:33 25.4 °C 9.6 °C 1015.5 hPa SSE 5.8 km/h 14.8 km/h 37 % 0 mm
15:38 25.3 °C 9.2 °C 1015.1 hPa SSW 13.2 km/h 22.2 km/h 36 % 0 mm
15:43 25.6 °C 9.8 °C 1015.5 hPa SE 14.3 km/h 18.5 km/h 37 % 0 mm
15:48 25.7 °C 8.6 °C 1015.1 hPa SSE 17.9 km/h 22.2 km/h 34 % 0 mm
15:53 25.5 °C 8.9 °C 1015.1 hPa ESE 13.2 km/h 32.2 km/h 35 % 0 mm
15:58 25.6 °C 9 °C 1015.1 hPa ESE 21.4 km/h 31.5 km/h 35 % 0 mm
16:03 25.3 °C 8.7 °C 1015.1 hPa SE 12.9 km/h 20.4 km/h 35 % 0 mm
16:08 25.1 °C 9.3 °C 1015.1 hPa South 10 km/h 18.5 km/h 37 % 0 mm
16:13 25.3 °C 8.8 °C 1015.1 hPa SSW 13.4 km/h 20.4 km/h 35 % 0 mm
16:18 25.4 °C 9.2 °C 1015.1 hPa SE 17.4 km/h 22.2 km/h 36 % 0 mm
16:23 25.5 °C 9.3 °C 1015.1 hPa SE 13.4 km/h 20.4 km/h 36 % 0 mm
16:28 25.7 °C 9.1 °C 1015.1 hPa South 16.7 km/h 33.3 km/h 35 % 0 mm
16:33 25.5 °C 8.9 °C 1015.1 hPa SSE 15.3 km/h 31.5 km/h 35 % 0 mm
16:38 25.5 °C 8.9 °C 1015.1 hPa SE 9.2 km/h 13 km/h 35 % 0 mm
16:43 25.7 °C 9.1 °C 1014.8 hPa ESE 19.5 km/h 24.1 km/h 35 % 0 mm
16:48 25.7 °C 9.1 °C 1014.8 hPa SE 14.3 km/h 18.5 km/h 35 % 0 mm
16:53 25.8 °C 9.2 °C 1014.8 hPa SSE 18 km/h 25.9 km/h 35 % 0 mm
16:59 25.9 °C 9.3 °C 1014.8 hPa SE 7.1 km/h 18.5 km/h 35 % 0 mm
17:04 26.2 °C 9.1 °C 1014.8 hPa SE 16.9 km/h 22.5 km/h 34 % 0 mm
17:09 26 °C 8.9 °C 1014.8 hPa South 15 km/h 18.5 km/h 34 % 0 mm
17:14 25.6 °C 8.9 °C 1014.8 hPa South 13.5 km/h 22.2 km/h 35 % 0 mm
17:19 25.4 °C 8.8 °C 1014.8 hPa SE 10.5 km/h 33.3 km/h 35 % 0 mm
17:23 25.6 °C 8.6 °C 1014.8 hPa SSE 14.8 km/h 19.3 km/h 34 % 0 mm
17:29 25.6 °C 9 °C 1014.8 hPa SE 13.4 km/h 22.2 km/h 35 % 0 mm
17:33 25.4 °C 8.4 °C 1014.8 hPa South 18.7 km/h 31.5 km/h 34 % 0 mm
17:38 25.4 °C 8.8 °C 1014.8 hPa SSE 13.5 km/h 20.4 km/h 35 % 0 mm
17:43 25.6 °C 9 °C 1014.8 hPa SE 16.1 km/h 33.8 km/h 35 % 0 mm
17:48 25.5 °C 8.5 °C 1014.8 hPa SSE 14 km/h 18.5 km/h 34 % 0 mm
17:53 25.4 °C 8.4 °C 1014.8 hPa SE 18.2 km/h 18.5 km/h 34 % 0 mm
17:58 25.4 °C 8 °C 1014.8 hPa SE 20.3 km/h 31.5 km/h 33 % 0 mm
18:03 25.3 °C 8.3 °C 1014.8 hPa SSE 16.1 km/h 22.2 km/h 34 % 0 mm
18:09 25.2 °C 8.2 °C 1014.8 hPa SE 15.6 km/h 24.1 km/h 34 % 0 mm
18:13 25.4 °C 7.9 °C 1014.8 hPa SSE 15.6 km/h 25.9 km/h 33 % 0 mm
18:19 25.2 °C 8.2 °C 1014.8 hPa SE 13.5 km/h 18.5 km/h 34 % 0 mm
18:23 25.3 °C 8.3 °C 1014.8 hPa SE 14.8 km/h 22.2 km/h 34 % 0 mm
18:28 25.3 °C 8.3 °C 1015.1 hPa SE 12.9 km/h 20.9 km/h 34 % 0 mm
18:33 25.3 °C 8.3 °C 1014.8 hPa ESE 20.1 km/h 29.6 km/h 34 % 0 mm
18:38 25.1 °C 8.2 °C 1014.8 hPa SSE 16.9 km/h 24.1 km/h 34 % 0 mm
18:43 25.1 °C 8.1 °C 1015.1 hPa SE 17.9 km/h 37 km/h 34 % 0 mm
18:49 24.9 °C 7.9 °C 1015.1 hPa SSE 18.7 km/h 27.8 km/h 34 % 0 mm
18:54 24.7 °C 7.8 °C 1015.1 hPa SE 16.7 km/h 27.8 km/h 34 % 0 mm
18:59 24.8 °C 7.8 °C 1015.1 hPa SSE 14 km/h 24.1 km/h 34 % 0 mm
19:03 24.7 °C 7.7 °C 1015.1 hPa SE 18.5 km/h 22.2 km/h 34 % 0 mm
19:09 24.4 °C 8 °C 1015.5 hPa South 22 km/h 22.2 km/h 35 % 0 mm
19:13 24.2 °C 7.8 °C 1015.5 hPa SE 16.1 km/h 27.8 km/h 35 % 0 mm
19:18 24.1 °C 8.1 °C 1015.5 hPa ESE 19.5 km/h 20.4 km/h 36 % 0 mm
19:23 23.9 °C 7.9 °C 1015.5 hPa SE 16.9 km/h 27.8 km/h 36 % 0 mm
19:28 23.8 °C 7.8 °C 1015.5 hPa ESE 16.7 km/h 31.5 km/h 36 % 0 mm
19:34 23.7 °C 8.1 °C 1015.8 hPa SE 20 km/h 31.5 km/h 37 % 0 mm
19:39 23.4 °C 8.3 °C 1015.8 hPa ESE 18.5 km/h 24.1 km/h 38 % 0 mm
19:44 23 °C 7.9 °C 1015.8 hPa SE 20.9 km/h 29.6 km/h 38 % 0 mm
19:49 22.8 °C 7.7 °C 1015.8 hPa ESE 17.4 km/h 25.9 km/h 38 % 0 mm
19:54 22.7 °C 7.7 °C 1016.1 hPa SE 12.6 km/h 20.4 km/h 38 % 0 mm
19:59 22.4 °C 7.8 °C 1016.1 hPa SSE 11.1 km/h 19.3 km/h 39 % 0 mm
20:04 22.2 °C 7.6 °C 1016.1 hPa SE 14 km/h 20.4 km/h 39 % 0 mm
20:09 22.1 °C 7.8 °C 1016.1 hPa SE 6.8 km/h 11.1 km/h 40 % 0 mm
20:14 21.9 °C 7.3 °C 1016.5 hPa SE 10 km/h 20.4 km/h 39 % 0 mm
20:19 21.7 °C 7.1 °C 1016.5 hPa SE 19.6 km/h 27.8 km/h 39 % 0 mm
20:24 21.4 °C 6.9 °C 1016.5 hPa SE 13.4 km/h 31.5 km/h 39 % 0 mm
20:29 21.2 °C 7.1 °C 1016.5 hPa SE 16.7 km/h 18.5 km/h 40 % 0 mm
20:34 20.9 °C 6.8 °C 1016.8 hPa SE 7.7 km/h 18.5 km/h 40 % 0 mm
20:39 20.7 °C 7 °C 1016.8 hPa SE 17.1 km/h 24.1 km/h 41 % 0 mm
20:44 20.5 °C 7.5 °C 1016.8 hPa SSE 7.2 km/h 11.1 km/h 43 % 0 mm
20:49 20.3 °C 7.3 °C 1017.2 hPa SE 7.6 km/h 11.3 km/h 43 % 0 mm
20:54 20.1 °C 7.4 °C 1017.2 hPa SSE 10.1 km/h 18.5 km/h 44 % 0 mm
20:59 19.9 °C 7.6 °C 1017.2 hPa SSE 8.9 km/h 12.9 km/h 45 % 0 mm
21:04 19.6 °C 7.3 °C 1017.2 hPa SSE 8.7 km/h 14.8 km/h 45 % 0 mm
21:09 19.3 °C 7.4 °C 1017.5 hPa SSE 10.1 km/h 14.8 km/h 46 % 0 mm
21:14 19.2 °C 7.3 °C 1017.5 hPa SSE 7.9 km/h 18.5 km/h 46 % 0 mm
21:19 19 °C 7.4 °C 1017.5 hPa SSE 8.2 km/h 14.8 km/h 47 % 0 mm
21:24 18.8 °C 7.6 °C 1017.5 hPa SSE 7.9 km/h 13 km/h 48 % 0 mm
21:29 18.6 °C 7.6 °C 1017.5 hPa SSE 7.7 km/h 16.7 km/h 49 % 0 mm
21:34 18.4 °C 8.1 °C 1017.8 hPa SSE 10.1 km/h 16.7 km/h 51 % 0 mm
21:39 18.2 °C 7.9 °C 1017.8 hPa South 5 km/h 18.5 km/h 51 % 0 mm
21:44 18.1 °C 8.1 °C 1017.8 hPa SSE 7.7 km/h 13 km/h 52 % 0 mm
21:49 17.9 °C 8.4 °C 1017.8 hPa South 11.1 km/h 18.5 km/h 54 % 0 mm
21:54 17.7 °C 8.5 °C 1018.2 hPa SSE 10.5 km/h 16.7 km/h 55 % 0 mm
21:59 17.5 °C 8.3 °C 1018.2 hPa SSE 8.2 km/h 13 km/h 55 % 0 mm
22:04 17.3 °C 8.4 °C 1018.2 hPa SSE 8.2 km/h 11.1 km/h 56 % 0 mm
22:09 17.1 °C 8.8 °C 1018.5 hPa SSE 11.6 km/h 18.5 km/h 58 % 0 mm
22:14 16.9 °C 8.9 °C 1018.5 hPa SSE 9.5 km/h 17.7 km/h 59 % 0 mm
22:19 16.8 °C 9.3 °C 1018.5 hPa SSE 13.7 km/h 22.2 km/h 61 % 0 mm
22:24 16.7 °C 9.4 °C 1018.5 hPa SSE 9.2 km/h 14.5 km/h 62 % 0 mm
22:29 16.5 °C 9.4 °C 1018.5 hPa SSE 5.6 km/h 14.8 km/h 63 % 0 mm
22:34 16.4 °C 9.6 °C 1018.5 hPa SSE 9.3 km/h 14.8 km/h 64 % 0 mm
22:39 16.2 °C 9.6 °C 1018.5 hPa SSE 11.3 km/h 18.5 km/h 65 % 0 mm
22:44 16.1 °C 10 °C 1018.8 hPa SSE 10.5 km/h 18.5 km/h 67 % 0 mm
22:49 16 °C 10.1 °C 1018.8 hPa SSE 6.4 km/h 13 km/h 68 % 0 mm
22:54 15.9 °C 10 °C 1018.8 hPa SSE 9.5 km/h 14.8 km/h 68 % 0 mm
22:59 15.8 °C 10.3 °C 1018.8 hPa SSE 10.5 km/h 18.5 km/h 70 % 0 mm
23:04 15.7 °C 10.5 °C 1018.8 hPa SSE 9.5 km/h 14.8 km/h 71 % 0 mm
23:09 15.7 °C 10.6 °C 1018.8 hPa SSE 9.2 km/h 16.7 km/h 72 % 0 mm
23:14 15.5 °C 10.4 °C 1018.8 hPa SSE 6.9 km/h 16.7 km/h 72 % 0 mm
23:19 15.4 °C 10.6 °C 1018.8 hPa SSE 7.2 km/h 14.5 km/h 73 % 0 mm
23:24 15.3 °C 10.4 °C 1018.8 hPa SSE 8.9 km/h 13 km/h 73 % 0 mm
23:29 15.2 °C 10.6 °C 1018.8 hPa SSE 9.5 km/h 14.8 km/h 74 % 0 mm
23:34 15 °C 10.6 °C 1018.8 hPa SSE 7.4 km/h 14.5 km/h 75 % 0 mm
23:39 14.9 °C 10.9 °C 1018.8 hPa SSE 12.2 km/h 18.5 km/h 77 % 0 mm
23:44 14.8 °C 11.1 °C 1018.8 hPa SSE 10.1 km/h 13 km/h 78 % 0 mm
23:49 14.7 °C 11.1 °C 1018.8 hPa SSE 8.2 km/h 14.8 km/h 79 % 0 mm
23:54 14.6 °C 11.2 °C 1018.8 hPa SSE 7.1 km/h 13 km/h 80 % 0 mm
23:59 14.6 °C 11.4 °C 1018.8 hPa SE 11.1 km/h 22.2 km/h 81 % 0 mm
Ararat Weather
Compliments of Weather Underground - 2.25 mb
Click here to send mail.


ABOUT

Live weather data from Ararat, Victoria, Australia, 3377
Data uploaded from Cumulus every 5 minutes to Weather Underground.
This site then downloads the raw data for formatting and display.
Metric and imperial data can be displayed. Graphs and historical data available.
Includes Sun and Moon times and rain image live from BOM.

Check out Ararat Weather on Facebook, Twitter and Google +

Help support ongoing costs by checking out the ads





Follow @AraratWeather